sensor_id;sensor_type;location;lat;lon;timestamp;P1;durP1;ratioP1;P2;durP2;ratioP2
21943;SDS011;11136;48.778;9.126;2023-09-12T00:01:35;10.93;;;6.50;;
21943;SDS011;11136;48.778;9.126;2023-09-12T00:04:00;12.00;;;6.07;;
21943;SDS011;11136;48.778;9.126;2023-09-12T00:06:26;10.20;;;6.28;;
21943;SDS011;11136;48.778;9.126;2023-09-12T00:08:52;18.95;;;7.35;;
21943;SDS011;11136;48.778;9.126;2023-09-12T00:11:19;30.05;;;8.20;;
21943;SDS011;11136;48.778;9.126;2023-09-12T00:13:45;68.68;;;10.82;;
21943;SDS011;11136;48.778;9.126;2023-09-12T00:16:10;48.17;;;11.35;;
21943;SDS011;11136;48.778;9.126;2023-09-12T00:18:39;58.28;;;12.00;;
21943;SDS011;11136;48.778;9.126;2023-09-12T00:21:05;55.40;;;11.70;;
21943;SDS011;11136;48.778;9.126;2023-09-12T00:23:30;32.20;;;8.23;;
21943;SDS011;11136;48.778;9.126;2023-09-12T00:25:56;29.92;;;9.52;;
21943;SDS011;11136;48.778;9.126;2023-09-12T00:28:22;36.63;;;8.70;;
21943;SDS011;11136;48.778;9.126;2023-09-12T00:30:48;34.78;;;8.90;;
21943;SDS011;11136;48.778;9.126;2023-09-12T00:33:15;31.65;;;7.95;;
21943;SDS011;11136;48.778;9.126;2023-09-12T00:35:40;23.25;;;6.78;;
21943;SDS011;11136;48.778;9.126;2023-09-12T00:38:06;11.60;;;6.55;;
21943;SDS011;11136;48.778;9.126;2023-09-12T00:40:35;17.35;;;7.18;;
21943;SDS011;11136;48.778;9.126;2023-09-12T00:43:02;12.60;;;6.15;;
21943;SDS011;11136;48.778;9.126;2023-09-12T00:45:28;10.55;;;6.03;;
21943;SDS011;11136;48.778;9.126;2023-09-12T00:47:56;15.45;;;6.63;;
21943;SDS011;11136;48.778;9.126;2023-09-12T00:50:25;10.00;;;5.60;;
21943;SDS011;11136;48.778;9.126;2023-09-12T00:52:51;11.20;;;6.28;;
21943;SDS011;11136;48.778;9.126;2023-09-12T00:55:19;9.35;;;5.90;;
21943;SDS011;11136;48.778;9.126;2023-09-12T00:57:44;10.60;;;6.05;;
21943;SDS011;11136;48.778;9.126;2023-09-12T01:00:11;16.73;;;6.28;;
21943;SDS011;11136;48.778;9.126;2023-09-12T01:02:40;15.07;;;6.07;;
21943;SDS011;11136;48.778;9.126;2023-09-12T01:05:07;10.13;;;6.10;;
21943;SDS011;11136;48.778;9.126;2023-09-12T01:07:38;12.85;;;6.20;;
21943;SDS011;11136;48.778;9.126;2023-09-12T01:10:04;15.53;;;6.60;;
21943;SDS011;11136;48.778;9.126;2023-09-12T01:12:31;12.68;;;6.53;;
21943;SDS011;11136;48.778;9.126;2023-09-12T01:14:56;8.85;;;5.88;;
21943;SDS011;11136;48.778;9.126;2023-09-12T01:17:22;19.08;;;6.65;;
21943;SDS011;11136;48.778;9.126;2023-09-12T01:19:48;10.77;;;6.40;;
21943;SDS011;11136;48.778;9.126;2023-09-12T01:25:26;14.38;;;6.70;;
21943;SDS011;11136;48.778;9.126;2023-09-12T01:28:04;7.82;;;5.70;;
21943;SDS011;11136;48.778;9.126;2023-09-12T01:30:32;15.93;;;6.25;;
21943;SDS011;11136;48.778;9.126;2023-09-12T01:33:00;13.10;;;6.07;;
21943;SDS011;11136;48.778;9.126;2023-09-12T01:35:26;13.13;;;6.22;;
21943;SDS011;11136;48.778;9.126;2023-09-12T01:37:52;15.85;;;6.00;;
21943;SDS011;11136;48.778;9.126;2023-09-12T01:40:24;14.07;;;6.30;;
21943;SDS011;11136;48.778;9.126;2023-09-12T01:42:58;12.63;;;6.40;;
21943;SDS011;11136;48.778;9.126;2023-09-12T01:45:25;12.85;;;6.07;;
21943;SDS011;11136;48.778;9.126;2023-09-12T01:47:52;14.82;;;7.22;;
21943;SDS011;11136;48.778;9.126;2023-09-12T01:50:18;9.32;;;5.45;;
21943;SDS011;11136;48.778;9.126;2023-09-12T01:52:45;12.05;;;5.80;;
21943;SDS011;11136;48.778;9.126;2023-09-12T01:55:12;16.30;;;5.80;;
21943;SDS011;11136;48.778;9.126;2023-09-12T01:57:39;12.55;;;6.50;;
21943;SDS011;11136;48.778;9.126;2023-09-12T02:00:07;12.40;;;5.65;;
21943;SDS011;11136;48.778;9.126;2023-09-12T02:02:33;11.00;;;5.72;;
21943;SDS011;11136;48.778;9.126;2023-09-12T02:07:32;10.50;;;5.93;;
21943;SDS011;11136;48.778;9.126;2023-09-12T02:10:00;12.32;;;6.18;;
21943;SDS011;11136;48.778;9.126;2023-09-12T02:12:25;12.98;;;6.28;;
21943;SDS011;11136;48.778;9.126;2023-09-12T02:14:51;12.23;;;6.28;;
21943;SDS011;11136;48.778;9.126;2023-09-12T02:17:17;13.52;;;6.55;;
21943;SDS011;11136;48.778;9.126;2023-09-12T02:19:46;13.07;;;6.18;;
21943;SDS011;11136;48.778;9.126;2023-09-12T02:22:14;9.15;;;6.30;;
21943;SDS011;11136;48.778;9.126;2023-09-12T02:24:39;13.32;;;6.05;;
21943;SDS011;11136;48.778;9.126;2023-09-12T02:27:06;10.05;;;6.25;;
21943;SDS011;11136;48.778;9.126;2023-09-12T02:29:32;9.07;;;5.78;;
21943;SDS011;11136;48.778;9.126;2023-09-12T02:31:57;10.48;;;5.85;;
21943;SDS011;11136;48.778;9.126;2023-09-12T02:34:24;15.30;;;6.82;;
21943;SDS011;11136;48.778;9.126;2023-09-12T02:36:50;12.77;;;6.30;;
21943;SDS011;11136;48.778;9.126;2023-09-12T02:39:15;16.20;;;6.78;;
21943;SDS011;11136;48.778;9.126;2023-09-12T02:41:41;13.30;;;6.05;;
21943;SDS011;11136;48.778;9.126;2023-09-12T02:44:06;14.10;;;6.43;;
21943;SDS011;11136;48.778;9.126;2023-09-12T02:46:33;9.57;;;6.22;;
21943;SDS011;11136;48.778;9.126;2023-09-12T02:49:00;12.10;;;6.65;;
21943;SDS011;11136;48.778;9.126;2023-09-12T02:51:25;13.85;;;6.07;;
21943;SDS011;11136;48.778;9.126;2023-09-12T02:53:51;13.93;;;5.97;;
21943;SDS011;11136;48.778;9.126;2023-09-12T02:56:19;13.25;;;6.00;;
21943;SDS011;11136;48.778;9.126;2023-09-12T02:58:47;11.10;;;6.22;;
21943;SDS011;11136;48.778;9.126;2023-09-12T03:01:14;14.70;;;6.13;;
21943;SDS011;11136;48.778;9.126;2023-09-12T03:03:45;14.52;;;6.22;;
21943;SDS011;11136;48.778;9.126;2023-09-12T03:06:12;14.13;;;6.25;;
21943;SDS011;11136;48.778;9.126;2023-09-12T03:08:38;10.13;;;6.43;;
21943;SDS011;11136;48.778;9.126;2023-09-12T03:11:04;9.35;;;6.18;;
21943;SDS011;11136;48.778;9.126;2023-09-12T03:13:32;28.95;;;6.53;;
21943;SDS011;11136;48.778;9.126;2023-09-12T03:15:59;12.23;;;6.35;;
21943;SDS011;11136;48.778;9.126;2023-09-12T03:18:25;18.60;;;6.32;;
21943;SDS011;11136;48.778;9.126;2023-09-12T03:20:51;16.23;;;6.68;;
21943;SDS011;11136;48.778;9.126;2023-09-12T03:23:16;12.27;;;6.25;;
21943;SDS011;11136;48.778;9.126;2023-09-12T03:25:42;11.73;;;5.82;;
21943;SDS011;11136;48.778;9.126;2023-09-12T03:28:08;12.20;;;6.47;;
21943;SDS011;11136;48.778;9.126;2023-09-12T03:30:35;10.63;;;6.28;;
21943;SDS011;11136;48.778;9.126;2023-09-12T03:33:02;17.55;;;6.25;;
21943;SDS011;11136;48.778;9.126;2023-09-12T03:35:28;12.10;;;6.57;;
21943;SDS011;11136;48.778;9.126;2023-09-12T03:37:55;12.45;;;6.80;;
21943;SDS011;11136;48.778;9.126;2023-09-12T03:40:20;14.70;;;7.15;;
21943;SDS011;11136;48.778;9.126;2023-09-12T03:42:46;10.52;;;5.70;;
21943;SDS011;11136;48.778;9.126;2023-09-12T03:45:12;12.27;;;6.57;;
21943;SDS011;11136;48.778;9.126;2023-09-12T03:47:38;13.93;;;6.32;;
21943;SDS011;11136;48.778;9.126;2023-09-12T03:50:03;14.27;;;6.30;;
21943;SDS011;11136;48.778;9.126;2023-09-12T03:52:29;13.43;;;6.45;;
21943;SDS011;11136;48.778;9.126;2023-09-12T03:54:55;11.13;;;6.85;;
21943;SDS011;11136;48.778;9.126;2023-09-12T03:57:21;11.35;;;6.35;;
21943;SDS011;11136;48.778;9.126;2023-09-12T03:59:47;13.05;;;6.38;;
21943;SDS011;11136;48.778;9.126;2023-09-12T04:02:13;11.23;;;6.05;;
21943;SDS011;11136;48.778;9.126;2023-09-12T04:04:38;13.73;;;6.20;;
21943;SDS011;11136;48.778;9.126;2023-09-12T04:07:06;10.25;;;6.13;;
21943;SDS011;11136;48.778;9.126;2023-09-12T04:09:32;10.82;;;6.63;;
21943;SDS011;11136;48.778;9.126;2023-09-12T04:11:57;11.23;;;6.40;;
21943;SDS011;11136;48.778;9.126;2023-09-12T04:14:23;15.05;;;7.25;;
21943;SDS011;11136;48.778;9.126;2023-09-12T04:16:48;9.68;;;6.07;;
21943;SDS011;11136;48.778;9.126;2023-09-12T04:19:14;11.20;;;5.88;;
21943;SDS011;11136;48.778;9.126;2023-09-12T04:21:40;11.63;;;7.07;;
21943;SDS011;11136;48.778;9.126;2023-09-12T04:24:06;13.63;;;7.40;;
21943;SDS011;11136;48.778;9.126;2023-09-12T04:26:32;15.45;;;6.75;;
21943;SDS011;11136;48.778;9.126;2023-09-12T04:28:59;11.75;;;6.72;;
21943;SDS011;11136;48.778;9.126;2023-09-12T04:31:25;10.23;;;6.10;;
21943;SDS011;11136;48.778;9.126;2023-09-12T04:33:51;11.57;;;7.00;;
21943;SDS011;11136;48.778;9.126;2023-09-12T04:36:17;9.68;;;6.57;;
21943;SDS011;11136;48.778;9.126;2023-09-12T04:38:44;11.25;;;7.05;;
21943;SDS011;11136;48.778;9.126;2023-09-12T04:41:11;13.23;;;7.00;;
21943;SDS011;11136;48.778;9.126;2023-09-12T04:43:40;17.33;;;7.00;;
21943;SDS011;11136;48.778;9.126;2023-09-12T04:46:06;14.23;;;7.07;;
21943;SDS011;11136;48.778;9.126;2023-09-12T04:48:31;13.85;;;6.22;;
21943;SDS011;11136;48.778;9.126;2023-09-12T04:50:57;16.38;;;7.82;;
21943;SDS011;11136;48.778;9.126;2023-09-12T04:53:24;11.15;;;6.05;;
21943;SDS011;11136;48.778;9.126;2023-09-12T04:55:51;11.20;;;6.72;;
21943;SDS011;11136;48.778;9.126;2023-09-12T04:58:21;15.50;;;7.43;;
21943;SDS011;11136;48.778;9.126;2023-09-12T05:00:48;19.83;;;6.60;;
21943;SDS011;11136;48.778;9.126;2023-09-12T05:03:14;15.13;;;6.65;;
21943;SDS011;11136;48.778;9.126;2023-09-12T05:05:40;11.77;;;6.38;;
21943;SDS011;11136;48.778;9.126;2023-09-12T05:08:06;11.10;;;6.68;;
21943;SDS011;11136;48.778;9.126;2023-09-12T05:10:31;12.30;;;7.57;;
21943;SDS011;11136;48.778;9.126;2023-09-12T05:12:57;11.82;;;6.63;;
21943;SDS011;11136;48.778;9.126;2023-09-12T05:15:22;13.13;;;6.70;;
21943;SDS011;11136;48.778;9.126;2023-09-12T05:17:48;13.35;;;7.32;;
21943;SDS011;11136;48.778;9.126;2023-09-12T05:20:13;11.57;;;7.25;;
21943;SDS011;11136;48.778;9.126;2023-09-12T05:22:39;14.88;;;7.13;;
21943;SDS011;11136;48.778;9.126;2023-09-12T05:25:05;19.40;;;8.63;;
21943;SDS011;11136;48.778;9.126;2023-09-12T05:27:30;19.77;;;7.50;;
21943;SDS011;11136;48.778;9.126;2023-09-12T05:29:56;10.68;;;6.38;;
21943;SDS011;11136;48.778;9.126;2023-09-12T05:32:21;10.27;;;7.03;;
21943;SDS011;11136;48.778;9.126;2023-09-12T05:34:48;13.45;;;7.65;;
21943;SDS011;11136;48.778;9.126;2023-09-12T05:37:15;14.80;;;7.75;;
21943;SDS011;11136;48.778;9.126;2023-09-12T05:39:41;13.43;;;8.32;;
21943;SDS011;11136;48.778;9.126;2023-09-12T05:42:06;14.63;;;6.63;;
21943;SDS011;11136;48.778;9.126;2023-09-12T05:44:32;14.05;;;7.85;;
21943;SDS011;11136;48.778;9.126;2023-09-12T05:46:58;15.40;;;7.20;;
21943;SDS011;11136;48.778;9.126;2023-09-12T05:49:24;14.70;;;7.53;;
21943;SDS011;11136;48.778;9.126;2023-09-12T05:51:50;16.10;;;8.27;;
21943;SDS011;11136;48.778;9.126;2023-09-12T05:54:16;13.80;;;7.85;;
21943;SDS011;11136;48.778;9.126;2023-09-12T05:56:41;13.02;;;7.72;;
21943;SDS011;11136;48.778;9.126;2023-09-12T05:59:07;13.68;;;7.57;;
21943;SDS011;11136;48.778;9.126;2023-09-12T06:01:32;15.65;;;8.20;;
21943;SDS011;11136;48.778;9.126;2023-09-12T06:03:58;11.90;;;8.48;;
21943;SDS011;11136;48.778;9.126;2023-09-12T06:06:25;19.92;;;10.75;;
21943;SDS011;11136;48.778;9.126;2023-09-12T06:08:51;18.88;;;10.13;;
21943;SDS011;11136;48.778;9.126;2023-09-12T06:11:18;21.35;;;9.55;;
21943;SDS011;11136;48.778;9.126;2023-09-12T06:13:44;11.75;;;7.60;;
21943;SDS011;11136;48.778;9.126;2023-09-12T06:16:09;14.90;;;8.10;;
21943;SDS011;11136;48.778;9.126;2023-09-12T06:18:35;15.35;;;7.97;;
21943;SDS011;11136;48.778;9.126;2023-09-12T06:21:01;19.55;;;9.50;;
21943;SDS011;11136;48.778;9.126;2023-09-12T06:23:29;17.75;;;8.32;;
21943;SDS011;11136;48.778;9.126;2023-09-12T06:25:55;13.45;;;7.82;;
21943;SDS011;11136;48.778;9.126;2023-09-12T06:28:25;33.88;;;14.43;;
21943;SDS011;11136;48.778;9.126;2023-09-12T06:30:55;26.00;;;12.93;;
21943;SDS011;11136;48.778;9.126;2023-09-12T06:33:22;24.63;;;10.63;;
21943;SDS011;11136;48.778;9.126;2023-09-12T06:35:48;19.08;;;9.73;;
21943;SDS011;11136;48.778;9.126;2023-09-12T06:38:21;24.05;;;10.38;;
21943;SDS011;11136;48.778;9.126;2023-09-12T06:40:48;17.50;;;8.03;;
21943;SDS011;11136;48.778;9.126;2023-09-12T06:43:13;17.45;;;8.48;;
21943;SDS011;11136;48.778;9.126;2023-09-12T06:45:42;12.07;;;7.45;;
21943;SDS011;11136;48.778;9.126;2023-09-12T06:48:08;12.52;;;7.82;;
21943;SDS011;11136;48.778;9.126;2023-09-12T06:50:34;9.45;;;6.68;;
21943;SDS011;11136;48.778;9.126;2023-09-12T06:53:00;12.82;;;7.97;;
21943;SDS011;11136;48.778;9.126;2023-09-12T06:55:25;17.75;;;8.38;;
21943;SDS011;11136;48.778;9.126;2023-09-12T06:57:53;17.83;;;8.05;;
21943;SDS011;11136;48.778;9.126;2023-09-12T07:00:18;18.13;;;8.25;;
21943;SDS011;11136;48.778;9.126;2023-09-12T07:02:45;19.75;;;9.25;;
21943;SDS011;11136;48.778;9.126;2023-09-12T07:05:10;14.73;;;8.70;;
21943;SDS011;11136;48.778;9.126;2023-09-12T07:07:36;15.15;;;8.70;;
21943;SDS011;11136;48.778;9.126;2023-09-12T07:10:01;19.45;;;8.13;;
21943;SDS011;11136;48.778;9.126;2023-09-12T07:12:28;18.00;;;9.05;;
21943;SDS011;11136;48.778;9.126;2023-09-12T07:14:54;13.98;;;9.10;;
21943;SDS011;11136;48.778;9.126;2023-09-12T07:17:21;18.20;;;8.05;;
21943;SDS011;11136;48.778;9.126;2023-09-12T07:19:46;15.55;;;7.93;;
21943;SDS011;11136;48.778;9.126;2023-09-12T07:22:12;17.63;;;7.93;;
21943;SDS011;11136;48.778;9.126;2023-09-12T07:24:38;18.65;;;8.75;;
21943;SDS011;11136;48.778;9.126;2023-09-12T07:27:03;13.90;;;8.77;;
21943;SDS011;11136;48.778;9.126;2023-09-12T07:29:29;18.45;;;8.63;;
21943;SDS011;11136;48.778;9.126;2023-09-12T07:31:56;11.73;;;7.35;;
21943;SDS011;11136;48.778;9.126;2023-09-12T07:34:22;17.35;;;8.55;;
21943;SDS011;11136;48.778;9.126;2023-09-12T07:36:48;18.33;;;9.05;;
21943;SDS011;11136;48.778;9.126;2023-09-12T07:39:16;20.80;;;9.20;;
21943;SDS011;11136;48.778;9.126;2023-09-12T07:41:41;17.05;;;8.65;;
21943;SDS011;11136;48.778;9.126;2023-09-12T07:44:07;17.38;;;8.80;;
21943;SDS011;11136;48.778;9.126;2023-09-12T07:46:36;14.27;;;8.05;;
21943;SDS011;11136;48.778;9.126;2023-09-12T07:49:02;13.65;;;8.63;;
21943;SDS011;11136;48.778;9.126;2023-09-12T07:51:28;14.75;;;7.72;;
21943;SDS011;11136;48.778;9.126;2023-09-12T07:53:53;13.30;;;7.15;;
21943;SDS011;11136;48.778;9.126;2023-09-12T07:56:19;13.68;;;7.57;;
21943;SDS011;11136;48.778;9.126;2023-09-12T07:58:45;15.23;;;7.80;;
21943;SDS011;11136;48.778;9.126;2023-09-12T08:01:10;10.43;;;7.68;;
21943;SDS011;11136;48.778;9.126;2023-09-12T08:03:36;14.90;;;7.25;;
21943;SDS011;11136;48.778;9.126;2023-09-12T08:06:04;10.10;;;7.38;;
21943;SDS011;11136;48.778;9.126;2023-09-12T08:08:30;11.07;;;7.35;;
21943;SDS011;11136;48.778;9.126;2023-09-12T08:10:56;16.42;;;8.38;;
21943;SDS011;11136;48.778;9.126;2023-09-12T08:13:22;14.45;;;8.38;;
21943;SDS011;11136;48.778;9.126;2023-09-12T08:15:51;16.83;;;8.85;;
21943;SDS011;11136;48.778;9.126;2023-09-12T08:18:16;16.52;;;8.60;;
21943;SDS011;11136;48.778;9.126;2023-09-12T08:20:42;18.08;;;8.60;;
21943;SDS011;11136;48.778;9.126;2023-09-12T08:23:08;19.58;;;8.20;;
21943;SDS011;11136;48.778;9.126;2023-09-12T08:25:34;21.60;;;9.18;;
21943;SDS011;11136;48.778;9.126;2023-09-12T08:27:59;19.42;;;9.48;;
21943;SDS011;11136;48.778;9.126;2023-09-12T08:30:25;18.17;;;9.05;;
21943;SDS011;11136;48.778;9.126;2023-09-12T08:32:51;20.35;;;9.23;;
21943;SDS011;11136;48.778;9.126;2023-09-12T08:35:16;17.60;;;8.50;;
21943;SDS011;11136;48.778;9.126;2023-09-12T08:37:42;17.17;;;8.25;;
21943;SDS011;11136;48.778;9.126;2023-09-12T08:40:08;18.88;;;8.35;;
21943;SDS011;11136;48.778;9.126;2023-09-12T08:42:41;18.15;;;8.40;;
21943;SDS011;11136;48.778;9.126;2023-09-12T08:45:12;17.70;;;8.70;;
21943;SDS011;11136;48.778;9.126;2023-09-12T08:48:01;13.18;;;8.00;;
21943;SDS011;11136;48.778;9.126;2023-09-12T08:50:26;20.63;;;8.63;;
21943;SDS011;11136;48.778;9.126;2023-09-12T08:52:56;15.07;;;8.20;;
21943;SDS011;11136;48.778;9.126;2023-09-12T08:55:21;13.48;;;8.88;;
21943;SDS011;11136;48.778;9.126;2023-09-12T08:57:47;14.10;;;7.72;;
21943;SDS011;11136;48.778;9.126;2023-09-12T09:00:15;15.30;;;8.60;;
21943;SDS011;11136;48.778;9.126;2023-09-12T09:02:42;11.77;;;6.95;;
21943;SDS011;11136;48.778;9.126;2023-09-12T09:05:09;13.38;;;7.63;;
21943;SDS011;11136;48.778;9.126;2023-09-12T09:07:40;12.65;;;8.25;;
21943;SDS011;11136;48.778;9.126;2023-09-12T09:10:07;10.07;;;7.20;;
21943;SDS011;11136;48.778;9.126;2023-09-12T09:12:39;18.20;;;8.23;;
21943;SDS011;11136;48.778;9.126;2023-09-12T09:15:21;15.32;;;8.63;;
21943;SDS011;11136;48.778;9.126;2023-09-12T09:17:54;13.98;;;7.45;;
21943;SDS011;11136;48.778;9.126;2023-09-12T09:20:22;14.63;;;8.10;;
21943;SDS011;11136;48.778;9.126;2023-09-12T09:22:56;9.77;;;7.45;;
21943;SDS011;11136;48.778;9.126;2023-09-12T09:25:27;11.43;;;6.82;;
21943;SDS011;11136;48.778;9.126;2023-09-12T09:27:52;15.30;;;7.70;;
21943;SDS011;11136;48.778;9.126;2023-09-12T09:30:22;17.75;;;8.23;;
21943;SDS011;11136;48.778;9.126;2023-09-12T09:33:05;9.60;;;6.97;;
21943;SDS011;11136;48.778;9.126;2023-09-12T09:35:32;10.70;;;7.05;;
21943;SDS011;11136;48.778;9.126;2023-09-12T09:37:58;10.25;;;7.15;;
21943;SDS011;11136;48.778;9.126;2023-09-12T09:40:24;11.98;;;8.05;;
21943;SDS011;11136;48.778;9.126;2023-09-12T09:42:53;15.82;;;8.23;;
21943;SDS011;11136;48.778;9.126;2023-09-12T09:45:21;13.80;;;7.45;;
21943;SDS011;11136;48.778;9.126;2023-09-12T09:47:46;11.82;;;7.93;;
21943;SDS011;11136;48.778;9.126;2023-09-12T09:50:15;17.20;;;7.85;;
21943;SDS011;11136;48.778;9.126;2023-09-12T09:52:42;9.98;;;7.40;;
21943;SDS011;11136;48.778;9.126;2023-09-12T09:55:08;15.13;;;7.18;;
21943;SDS011;11136;48.778;9.126;2023-09-12T09:57:39;14.98;;;6.63;;
21943;SDS011;11136;48.778;9.126;2023-09-12T10:00:04;9.63;;;7.07;;
21943;SDS011;11136;48.778;9.126;2023-09-12T10:02:33;13.18;;;7.13;;
21943;SDS011;11136;48.778;9.126;2023-09-12T10:05:03;13.52;;;7.60;;
21943;SDS011;11136;48.778;9.126;2023-09-12T10:07:33;10.52;;;6.72;;
21943;SDS011;11136;48.778;9.126;2023-09-12T10:10:03;14.77;;;7.40;;
21943;SDS011;11136;48.778;9.126;2023-09-12T10:12:33;12.23;;;6.88;;
21943;SDS011;11136;48.778;9.126;2023-09-12T10:15:01;19.27;;;8.15;;
21943;SDS011;11136;48.778;9.126;2023-09-12T10:17:35;9.57;;;6.85;;
21943;SDS011;11136;48.778;9.126;2023-09-12T10:20:06;12.98;;;7.47;;
21943;SDS011;11136;48.778;9.126;2023-09-12T10:22:37;13.63;;;6.75;;
21943;SDS011;11136;48.778;9.126;2023-09-12T10:25:08;14.75;;;7.22;;
21943;SDS011;11136;48.778;9.126;2023-09-12T10:27:36;10.43;;;7.38;;
21943;SDS011;11136;48.778;9.126;2023-09-12T10:30:02;13.45;;;7.03;;
21943;SDS011;11136;48.778;9.126;2023-09-12T10:32:29;12.40;;;7.47;;
21943;SDS011;11136;48.778;9.126;2023-09-12T10:34:58;13.40;;;7.55;;
21943;SDS011;11136;48.778;9.126;2023-09-12T10:37:25;13.80;;;7.18;;
21943;SDS011;11136;48.778;9.126;2023-09-12T10:39:53;12.50;;;6.65;;
21943;SDS011;11136;48.778;9.126;2023-09-12T10:42:19;14.55;;;7.00;;
21943;SDS011;11136;48.778;9.126;2023-09-12T10:44:46;11.52;;;7.38;;
21943;SDS011;11136;48.778;9.126;2023-09-12T10:47:11;12.63;;;6.78;;
21943;SDS011;11136;48.778;9.126;2023-09-12T10:49:39;12.25;;;7.18;;
21943;SDS011;11136;48.778;9.126;2023-09-12T10:52:08;13.68;;;7.60;;
21943;SDS011;11136;48.778;9.126;2023-09-12T10:54:37;13.07;;;7.05;;
21943;SDS011;11136;48.778;9.126;2023-09-12T10:57:04;11.48;;;7.05;;
21943;SDS011;11136;48.778;9.126;2023-09-12T10:59:30;13.48;;;8.25;;
21943;SDS011;11136;48.778;9.126;2023-09-12T11:04:54;13.80;;;7.35;;
21943;SDS011;11136;48.778;9.126;2023-09-12T11:12:48;15.85;;;7.70;;
21943;SDS011;11136;48.778;9.126;2023-09-12T11:15:16;14.27;;;7.35;;
21943;SDS011;11136;48.778;9.126;2023-09-12T11:17:46;11.35;;;6.82;;
21943;SDS011;11136;48.778;9.126;2023-09-12T11:20:13;10.30;;;6.60;;
21943;SDS011;11136;48.778;9.126;2023-09-12T11:25:25;12.30;;;6.70;;
21943;SDS011;11136;48.778;9.126;2023-09-12T11:30:17;12.07;;;7.07;;
21943;SDS011;11136;48.778;9.126;2023-09-12T11:32:47;19.73;;;9.52;;
21943;SDS011;11136;48.778;9.126;2023-09-12T11:35:17;10.02;;;7.82;;
21943;SDS011;11136;48.778;9.126;2023-09-12T11:37:47;18.80;;;8.68;;
21943;SDS011;11136;48.778;9.126;2023-09-12T11:42:40;18.67;;;7.85;;
21943;SDS011;11136;48.778;9.126;2023-09-12T11:45:09;14.40;;;7.68;;
21943;SDS011;11136;48.778;9.126;2023-09-12T11:47:42;17.92;;;7.72;;
21943;SDS011;11136;48.778;9.126;2023-09-12T11:50:09;13.98;;;8.02;;
21943;SDS011;11136;48.778;9.126;2023-09-12T11:52:57;11.07;;;7.72;;
21943;SDS011;11136;48.778;9.126;2023-09-12T11:55:33;10.20;;;6.97;;
21943;SDS011;11136;48.778;9.126;2023-09-12T11:58:01;14.63;;;7.00;;
21943;SDS011;11136;48.778;9.126;2023-09-12T12:00:28;15.75;;;7.07;;
21943;SDS011;11136;48.778;9.126;2023-09-12T12:02:54;15.10;;;7.28;;
21943;SDS011;11136;48.778;9.126;2023-09-12T12:05:21;14.70;;;7.35;;
21943;SDS011;11136;48.778;9.126;2023-09-12T12:07:48;10.10;;;7.30;;
21943;SDS011;11136;48.778;9.126;2023-09-12T12:10:16;13.43;;;7.15;;
21943;SDS011;11136;48.778;9.126;2023-09-12T12:12:45;12.93;;;7.78;;
21943;SDS011;11136;48.778;9.126;2023-09-12T12:15:11;13.02;;;8.23;;
21943;SDS011;11136;48.778;9.126;2023-09-12T12:17:39;18.77;;;8.50;;
21943;SDS011;11136;48.778;9.126;2023-09-12T12:20:09;10.38;;;6.93;;
21943;SDS011;11136;48.778;9.126;2023-09-12T12:22:39;14.52;;;8.18;;
21943;SDS011;11136;48.778;9.126;2023-09-12T12:25:09;10.57;;;8.07;;
21943;SDS011;11136;48.778;9.126;2023-09-12T12:30:03;15.15;;;6.82;;
21943;SDS011;11136;48.778;9.126;2023-09-12T12:32:33;14.25;;;7.38;;
21943;SDS011;11136;48.778;9.126;2023-09-12T12:34:58;13.55;;;8.15;;
21943;SDS011;11136;48.778;9.126;2023-09-12T12:37:33;12.77;;;7.30;;
21943;SDS011;11136;48.778;9.126;2023-09-12T12:40:00;11.05;;;6.80;;
21943;SDS011;11136;48.778;9.126;2023-09-12T12:42:32;8.88;;;6.25;;
21943;SDS011;11136;48.778;9.126;2023-09-12T12:44:59;10.20;;;7.18;;
21943;SDS011;11136;48.778;9.126;2023-09-12T12:47:24;11.07;;;6.60;;
21943;SDS011;11136;48.778;9.126;2023-09-12T12:49:51;15.95;;;7.70;;
21943;SDS011;11136;48.778;9.126;2023-09-12T12:52:21;10.48;;;6.82;;
21943;SDS011;11136;48.778;9.126;2023-09-12T12:54:48;10.77;;;6.00;;
21943;SDS011;11136;48.778;9.126;2023-09-12T12:57:18;12.05;;;6.60;;
21943;SDS011;11136;48.778;9.126;2023-09-12T12:59:47;9.98;;;6.45;;
21943;SDS011;11136;48.778;9.126;2023-09-12T13:02:14;13.07;;;6.28;;
21943;SDS011;11136;48.778;9.126;2023-09-12T13:04:40;12.52;;;6.32;;
21943;SDS011;11136;48.778;9.126;2023-09-12T13:07:06;12.35;;;6.60;;
21943;SDS011;11136;48.778;9.126;2023-09-12T13:09:32;11.15;;;6.47;;
21943;SDS011;11136;48.778;9.126;2023-09-12T13:11:58;11.75;;;6.90;;
21943;SDS011;11136;48.778;9.126;2023-09-12T13:14:24;11.07;;;6.40;;
21943;SDS011;11136;48.778;9.126;2023-09-12T13:16:55;11.93;;;6.88;;
21943;SDS011;11136;48.778;9.126;2023-09-12T13:19:22;8.55;;;5.93;;
21943;SDS011;11136;48.778;9.126;2023-09-12T13:21:47;9.35;;;6.32;;
21943;SDS011;11136;48.778;9.126;2023-09-12T13:24:13;9.85;;;6.30;;
21943;SDS011;11136;48.778;9.126;2023-09-12T13:26:38;8.45;;;5.93;;
21943;SDS011;11136;48.778;9.126;2023-09-12T13:29:05;12.73;;;6.90;;
21943;SDS011;11136;48.778;9.126;2023-09-12T13:31:30;10.40;;;6.70;;
21943;SDS011;11136;48.778;9.126;2023-09-12T13:33:56;12.00;;;6.85;;
21943;SDS011;11136;48.778;9.126;2023-09-12T13:36:22;11.25;;;6.32;;
21943;SDS011;11136;48.778;9.126;2023-09-12T13:38:48;10.48;;;7.18;;
21943;SDS011;11136;48.778;9.126;2023-09-12T13:41:16;9.15;;;6.43;;
21943;SDS011;11136;48.778;9.126;2023-09-12T13:43:42;10.80;;;6.70;;
21943;SDS011;11136;48.778;9.126;2023-09-12T13:46:10;9.43;;;6.63;;
21943;SDS011;11136;48.778;9.126;2023-09-12T13:48:36;12.68;;;6.75;;
21943;SDS011;11136;48.778;9.126;2023-09-12T13:51:04;17.35;;;6.90;;
21943;SDS011;11136;48.778;9.126;2023-09-12T13:53:30;13.18;;;6.85;;
21943;SDS011;11136;48.778;9.126;2023-09-12T13:55:56;10.40;;;6.00;;
21943;SDS011;11136;48.778;9.126;2023-09-12T13:58:23;11.65;;;6.45;;
21943;SDS011;11136;48.778;9.126;2023-09-12T14:00:49;12.88;;;6.30;;
21943;SDS011;11136;48.778;9.126;2023-09-12T14:03:14;15.13;;;6.90;;
21943;SDS011;11136;48.778;9.126;2023-09-12T14:05:40;10.27;;;6.10;;
21943;SDS011;11136;48.778;9.126;2023-09-12T14:08:06;11.63;;;7.03;;
21943;SDS011;11136;48.778;9.126;2023-09-12T14:10:31;11.48;;;5.78;;
21943;SDS011;11136;48.778;9.126;2023-09-12T14:12:57;13.05;;;7.55;;
21943;SDS011;11136;48.778;9.126;2023-09-12T14:15:22;9.15;;;5.95;;
21943;SDS011;11136;48.778;9.126;2023-09-12T14:17:48;16.33;;;6.10;;
21943;SDS011;11136;48.778;9.126;2023-09-12T14:20:14;14.25;;;6.07;;
21943;SDS011;11136;48.778;9.126;2023-09-12T14:22:40;12.35;;;6.07;;
21943;SDS011;11136;48.778;9.126;2023-09-12T14:25:07;10.50;;;6.22;;
21943;SDS011;11136;48.778;9.126;2023-09-12T14:27:33;12.07;;;5.90;;
21943;SDS011;11136;48.778;9.126;2023-09-12T14:29:59;9.32;;;6.40;;
21943;SDS011;11136;48.778;9.126;2023-09-12T14:32:25;9.50;;;5.70;;
21943;SDS011;11136;48.778;9.126;2023-09-12T14:34:51;12.48;;;6.35;;
21943;SDS011;11136;48.778;9.126;2023-09-12T14:37:16;10.77;;;6.20;;
21943;SDS011;11136;48.778;9.126;2023-09-12T14:39:42;11.10;;;6.55;;
21943;SDS011;11136;48.778;9.126;2023-09-12T14:42:07;10.88;;;6.85;;
21943;SDS011;11136;48.778;9.126;2023-09-12T14:44:37;9.75;;;6.65;;
21943;SDS011;11136;48.778;9.126;2023-09-12T14:47:02;12.05;;;6.38;;
21943;SDS011;11136;48.778;9.126;2023-09-12T14:49:28;9.68;;;5.90;;
21943;SDS011;11136;48.778;9.126;2023-09-12T14:51:54;7.38;;;5.90;;
21943;SDS011;11136;48.778;9.126;2023-09-12T14:54:19;12.25;;;6.75;;
21943;SDS011;11136;48.778;9.126;2023-09-12T14:56:47;12.50;;;6.20;;
21943;SDS011;11136;48.778;9.126;2023-09-12T14:59:13;14.55;;;6.38;;